sensor_id;sensor_type;location;lat;lon;timestamp;pressure;altitude;pressure_sealevel;temperature;humidity
37634;BME280;32048;49.902;22.508;2023-04-02T00:03:00;97457.31;;;8.81;100.00
37634;BME280;32048;49.902;22.508;2023-04-02T00:08:04;97459.94;;;8.81;100.00
37634;BME280;32048;49.902;22.508;2023-04-02T00:10:48;97460.88;;;8.80;100.00
37634;BME280;32048;49.902;22.508;2023-04-02T00:15:46;97473.63;;;8.86;100.00
37634;BME280;32048;49.902;22.508;2023-04-02T00:18:20;97473.41;;;8.89;100.00
37634;BME280;32048;49.902;22.508;2023-04-02T00:21:02;97477.75;;;8.90;100.00
37634;BME280;32048;49.902;22.508;2023-04-02T00:23:35;97473.63;;;8.86;100.00
37634;BME280;32048;49.902;22.508;2023-04-02T00:26:06;97480.38;;;8.90;100.00
37634;BME280;32048;49.902;22.508;2023-04-02T00:28:46;97484.91;;;8.88;100.00
37634;BME280;32048;49.902;22.508;2023-04-02T00:31:12;97485.84;;;8.87;100.00
37634;BME280;32048;49.902;22.508;2023-04-02T00:33:41;97488.38;;;8.89;100.00
37634;BME280;32048;49.902;22.508;2023-04-02T00:36:09;97490.16;;;8.88;100.00
37634;BME280;32048;49.902;22.508;2023-04-02T00:38:36;97484.91;;;8.88;100.00
37634;BME280;32048;49.902;22.508;2023-04-02T00:41:05;97488.47;;;8.87;100.00
37634;BME280;32048;49.902;22.508;2023-04-02T00:43:36;97489.06;;;8.78;100.00
37634;BME280;32048;49.902;22.508;2023-04-02T00:46:10;97492.53;;;8.79;100.00
37634;BME280;32048;49.902;22.508;2023-04-02T00:48:45;97489.81;;;8.80;100.00
37634;BME280;32048;49.902;22.508;2023-04-02T00:51:20;97494.41;;;8.77;100.00
37634;BME280;32048;49.902;22.508;2023-04-02T00:53:51;97500.66;;;8.76;100.00
37634;BME280;32048;49.902;22.508;2023-04-02T00:56:25;97494.53;;;8.75;100.00
37634;BME280;32048;49.902;22.508;2023-04-02T00:58:55;97495.38;;;8.76;100.00
37634;BME280;32048;49.902;22.508;2023-04-02T01:01:26;97504.13;;;8.76;100.00
37634;BME280;32048;49.902;22.508;2023-04-02T01:03:59;97509.38;;;8.76;100.00
37634;BME280;32048;49.902;22.508;2023-04-02T01:06:29;97509.38;;;8.76;100.00
37634;BME280;32048;49.902;22.508;2023-04-02T01:12:10;97516.66;;;8.72;100.00
37634;BME280;32048;49.902;22.508;2023-04-02T01:17:34;97525.75;;;8.67;100.00
37634;BME280;32048;49.902;22.508;2023-04-02T01:20:18;97521.53;;;8.64;100.00
37634;BME280;32048;49.902;22.508;2023-04-02T01:25:34;97532.38;;;8.60;100.00
37634;BME280;32048;49.902;22.508;2023-04-02T01:30:36;97532.38;;;8.60;100.00
37634;BME280;32048;49.902;22.508;2023-04-02T01:33:04;97532.88;;;8.52;100.00
37634;BME280;32048;49.902;22.508;2023-04-02T01:35:37;97533.13;;;8.47;100.00
37634;BME280;32048;49.902;22.508;2023-04-02T01:38:11;97535.97;;;8.44;100.00
37634;BME280;32048;49.902;22.508;2023-04-02T01:45:56;97548.91;;;8.47;100.00
37634;BME280;32048;49.902;22.508;2023-04-02T01:48:28;97547.31;;;8.45;100.00
37634;BME280;32048;49.902;22.508;2023-04-02T01:50:57;97559.44;;;8.47;100.00
37634;BME280;32048;49.902;22.508;2023-04-02T01:53:26;97546.00;;;8.38;100.00
37634;BME280;32048;49.902;22.508;2023-04-02T01:55:58;97557.22;;;8.41;100.00
37634;BME280;32048;49.902;22.508;2023-04-02T01:58:27;97558.03;;;8.42;100.00
37634;BME280;32048;49.902;22.508;2023-04-02T02:01:01;97559.97;;;8.38;100.00
37634;BME280;32048;49.902;22.508;2023-04-02T02:03:29;97564.41;;;8.38;100.00
37634;BME280;32048;49.902;22.508;2023-04-02T02:05:57;97567.72;;;8.41;100.00
37634;BME280;32048;49.902;22.508;2023-04-02T02:08:33;97565.16;;;8.40;100.00
37634;BME280;32048;49.902;22.508;2023-04-02T02:11:04;97562.91;;;8.33;100.00
37634;BME280;32048;49.902;22.508;2023-04-02T02:13:31;97577.00;;;8.32;100.00
37634;BME280;32048;49.902;22.508;2023-04-02T02:16:00;97576.06;;;8.33;100.00
37634;BME280;32048;49.902;22.508;2023-04-02T02:18:28;97582.63;;;8.26;100.00
37634;BME280;32048;49.902;22.508;2023-04-02T02:20:57;97589.69;;;8.26;100.00
37634;BME280;32048;49.902;22.508;2023-04-02T02:23:26;97589.84;;;8.23;100.00
37634;BME280;32048;49.902;22.508;2023-04-02T02:25:55;97591.75;;;8.21;100.00
37634;BME280;32048;49.902;22.508;2023-04-02T02:28:29;97599.72;;;8.19;100.00
37634;BME280;32048;49.902;22.508;2023-04-02T02:31:22;97596.34;;;8.17;100.00
37634;BME280;32048;49.902;22.508;2023-04-02T02:33:59;97598.31;;;8.13;100.00
37634;BME280;32048;49.902;22.508;2023-04-02T02:36:42;97603.75;;;8.10;100.00
37634;BME280;32048;49.902;22.508;2023-04-02T02:39:18;97608.25;;;8.08;100.00
37634;BME280;32048;49.902;22.508;2023-04-02T02:42:19;97618.09;;;8.05;100.00
37634;BME280;32048;49.902;22.508;2023-04-02T02:44:51;97619.81;;;8.06;100.00
37634;BME280;32048;49.902;22.508;2023-04-02T02:47:32;97615.75;;;8.00;100.00
37634;BME280;32048;49.902;22.508;2023-04-02T02:50:03;97621.22;;;7.97;100.00
37634;BME280;32048;49.902;22.508;2023-04-02T02:52:37;97619.53;;;7.96;100.00
37634;BME280;32048;49.902;22.508;2023-04-02T02:55:20;97623.28;;;7.92;100.00
37634;BME280;32048;49.902;22.508;2023-04-02T02:58:01;97628.53;;;7.92;100.00
37634;BME280;32048;49.902;22.508;2023-04-02T03:00:34;97632.09;;;7.91;100.00
37634;BME280;32048;49.902;22.508;2023-04-02T03:03:03;97636.22;;;7.81;100.00
37634;BME280;32048;49.902;22.508;2023-04-02T03:05:31;97643.91;;;7.84;100.00
37634;BME280;32048;49.902;22.508;2023-04-02T03:08:02;97643.97;;;7.82;100.00
37634;BME280;32048;49.902;22.508;2023-04-02T03:10:40;97645.78;;;7.82;100.00
37634;BME280;32048;49.902;22.508;2023-04-02T03:13:36;97652.25;;;7.76;100.00
37634;BME280;32048;49.902;22.508;2023-04-02T03:16:19;97653.09;;;7.77;100.00
37634;BME280;32048;49.902;22.508;2023-04-02T03:18:56;97653.16;;;7.75;100.00
37634;BME280;32048;49.902;22.508;2023-04-02T03:27:01;97672.63;;;7.57;100.00
37634;BME280;32048;49.902;22.508;2023-04-02T03:29:38;97674.50;;;7.55;100.00
37634;BME280;32048;49.902;22.508;2023-04-02T03:32:19;97675.59;;;7.50;100.00
37634;BME280;32048;49.902;22.508;2023-04-02T03:34:54;97678.22;;;7.50;100.00
37634;BME280;32048;49.902;22.508;2023-04-02T03:37:28;97682.97;;;7.44;100.00
37634;BME280;32048;49.902;22.508;2023-04-02T03:40:06;97688.34;;;7.42;100.00
37634;BME280;32048;49.902;22.508;2023-04-02T03:45:38;97691.94;;;7.40;100.00
37634;BME280;32048;49.902;22.508;2023-04-02T03:48:30;97694.69;;;7.38;100.00
37634;BME280;32048;49.902;22.508;2023-04-02T03:51:06;97699.94;;;7.38;100.00
37634;BME280;32048;49.902;22.508;2023-04-02T03:53:37;97699.00;;;7.39;100.00
37634;BME280;32048;49.902;22.508;2023-04-02T03:56:05;97708.66;;;7.39;100.00
37634;BME280;32048;49.902;22.508;2023-04-02T03:58:37;97696.56;;;7.36;100.00
37634;BME280;32048;49.902;22.508;2023-04-02T04:01:30;97703.59;;;7.36;100.00
37634;BME280;32048;49.902;22.508;2023-04-02T04:04:10;97704.63;;;7.33;100.00
37634;BME280;32048;49.902;22.508;2023-04-02T04:06:42;97708.47;;;7.26;100.00
37634;BME280;32048;49.902;22.508;2023-04-02T04:12:35;97719.69;;;7.29;100.00
37634;BME280;32048;49.902;22.508;2023-04-02T04:15:20;97723.97;;;7.31;100.00
37634;BME280;32048;49.902;22.508;2023-04-02T04:18:02;97721.34;;;7.31;100.00
37634;BME280;32048;49.902;22.508;2023-04-02T04:20:56;97726.53;;;7.32;100.00
37634;BME280;32048;49.902;22.508;2023-04-02T04:23:36;97727.31;;;7.34;100.00
37634;BME280;32048;49.902;22.508;2023-04-02T04:26:13;97726.28;;;7.37;100.00
37634;BME280;32048;49.902;22.508;2023-04-02T04:28:55;97736.78;;;7.37;100.00
37634;BME280;32048;49.902;22.508;2023-04-02T04:31:36;97742.81;;;7.39;100.00
37634;BME280;32048;49.902;22.508;2023-04-02T04:34:10;97743.63;;;7.39;100.00
37634;BME280;32048;49.902;22.508;2023-04-02T04:36:45;97746.19;;;7.41;100.00
37634;BME280;32048;49.902;22.508;2023-04-02T04:39:25;97749.72;;;7.40;100.00
37634;BME280;32048;49.902;22.508;2023-04-02T04:41:58;97754.84;;;7.43;100.00
37634;BME280;32048;49.902;22.508;2023-04-02T04:44:44;97758.31;;;7.43;100.00
37634;BME280;32048;49.902;22.508;2023-04-02T04:47:19;97761.78;;;7.44;100.00
37634;BME280;32048;49.902;22.508;2023-04-02T04:49:56;97754.66;;;7.46;100.00
37634;BME280;32048;49.902;22.508;2023-04-02T04:52:32;97765.09;;;7.47;100.00
37634;BME280;32048;49.902;22.508;2023-04-02T04:55:01;97763.16;;;7.51;100.00
37634;BME280;32048;49.902;22.508;2023-04-02T04:57:37;97764.00;;;7.52;100.00
37634;BME280;32048;49.902;22.508;2023-04-02T05:02:45;97762.91;;;7.56;100.00
37634;BME280;32048;49.902;22.508;2023-04-02T05:05:19;97767.13;;;7.58;100.00
37634;BME280;32048;49.902;22.508;2023-04-02T05:07:55;97771.44;;;7.59;100.00
37634;BME280;32048;49.902;22.508;2023-04-02T05:10:56;97773.41;;;7.56;100.00
37634;BME280;32048;49.902;22.508;2023-04-02T05:16:16;97779.50;;;7.56;100.00
37634;BME280;32048;49.902;22.508;2023-04-02T05:19:20;97777.63;;;7.58;100.00
37634;BME280;32048;49.902;22.508;2023-04-02T05:24:57;97777.97;;;7.68;100.00
37634;BME280;32048;49.902;22.508;2023-04-02T05:32:59;97799.22;;;7.95;100.00
37634;BME280;32048;49.902;22.508;2023-04-02T05:35:34;97796.81;;;8.06;100.00
37634;BME280;32048;49.902;22.508;2023-04-02T05:38:03;97805.03;;;8.16;100.00
37634;BME280;32048;49.902;22.508;2023-04-02T05:40:35;97801.47;;;8.17;100.00
37634;BME280;32048;49.902;22.508;2023-04-02T05:43:08;97802.44;;;8.30;100.00
37634;BME280;32048;49.902;22.508;2023-04-02T05:45:38;97811.59;;;8.39;100.00
37634;BME280;32048;49.902;22.508;2023-04-02T05:48:19;97812.19;;;8.44;100.00
37634;BME280;32048;49.902;22.508;2023-04-02T05:50:50;97813.91;;;8.45;100.00
37634;BME280;32048;49.902;22.508;2023-04-02T05:53:32;97823.66;;;8.43;100.00
37634;BME280;32048;49.902;22.508;2023-04-02T05:58:49;97816.53;;;8.45;100.00
37634;BME280;32048;49.902;22.508;2023-04-02T06:01:27;97824.31;;;8.47;100.00
37634;BME280;32048;49.902;22.508;2023-04-02T06:09:20;97827.78;;;8.47;100.00
37634;BME280;32048;49.902;22.508;2023-04-02T06:12:01;97834.19;;;8.43;100.00
37634;BME280;32048;49.902;22.508;2023-04-02T06:14:32;97829.94;;;8.41;100.00
37634;BME280;32048;49.902;22.508;2023-04-02T06:16:59;97837.91;;;8.39;100.00
37634;BME280;32048;49.902;22.508;2023-04-02T06:19:33;97835.44;;;8.36;100.00
37634;BME280;32048;49.902;22.508;2023-04-02T06:22:17;97833.66;;;8.37;100.00
37634;BME280;32048;49.902;22.508;2023-04-02T06:24:51;97847.44;;;8.42;100.00
37634;BME280;32048;49.902;22.508;2023-04-02T06:27:22;97839.47;;;8.43;100.00
37634;BME280;32048;49.902;22.508;2023-04-02T06:29:54;97846.97;;;8.49;100.00
37634;BME280;32048;49.902;22.508;2023-04-02T06:32:24;97846.34;;;8.60;100.00
37634;BME280;32048;49.902;22.508;2023-04-02T06:34:54;97852.50;;;8.75;100.00
37634;BME280;32048;49.902;22.508;2023-04-02T06:37:36;97858.16;;;8.83;100.00
37634;BME280;32048;49.902;22.508;2023-04-02T06:40:06;97855.63;;;8.96;100.00
37634;BME280;32048;49.902;22.508;2023-04-02T06:42:47;97859.22;;;9.09;100.00
37634;BME280;32048;49.902;22.508;2023-04-02T06:45:22;97861.97;;;9.22;100.00
37634;BME280;32048;49.902;22.508;2023-04-02T06:48:07;97856.97;;;9.32;100.00
37634;BME280;32048;49.902;22.508;2023-04-02T06:53:25;97863.41;;;9.42;97.11
37634;BME280;32048;49.902;22.508;2023-04-02T06:56:04;97872.22;;;9.41;96.69
37634;BME280;32048;49.902;22.508;2023-04-02T06:58:32;97870.72;;;9.37;95.94
37634;BME280;32048;49.902;22.508;2023-04-02T07:00:59;97881.81;;;9.28;96.45
37634;BME280;32048;49.902;22.508;2023-04-02T07:03:29;97877.88;;;9.21;96.99
37634;BME280;32048;49.902;22.508;2023-04-02T07:05:58;97888.19;;;9.09;97.51
37634;BME280;32048;49.902;22.508;2023-04-02T07:08:26;97883.22;;;9.05;98.63
37634;BME280;32048;49.902;22.508;2023-04-02T07:10:54;97883.28;;;9.03;99.71
37634;BME280;32048;49.902;22.508;2023-04-02T07:13:22;97886.59;;;9.07;100.00
37634;BME280;32048;49.902;22.508;2023-04-02T07:15:51;97887.28;;;9.10;100.00
37634;BME280;32048;49.902;22.508;2023-04-02T07:18:26;97890.28;;;9.19;100.00
37634;BME280;32048;49.902;22.508;2023-04-02T07:20:54;97892.06;;;9.32;100.00
37634;BME280;32048;49.902;22.508;2023-04-02T07:23:22;97895.38;;;9.50;100.00
37634;BME280;32048;49.902;22.508;2023-04-02T07:25:51;97902.34;;;9.66;97.17
37634;BME280;32048;49.902;22.508;2023-04-02T07:28:18;97906.03;;;9.77;93.45
37634;BME280;32048;49.902;22.508;2023-04-02T07:30:49;97910.81;;;9.85;92.45
37634;BME280;32048;49.902;22.508;2023-04-02T07:33:21;97916.09;;;9.85;91.46
37634;BME280;32048;49.902;22.508;2023-04-02T07:35:54;97916.00;;;9.87;90.83
37634;BME280;32048;49.902;22.508;2023-04-02T07:38:24;97923.72;;;9.75;90.31
37634;BME280;32048;49.902;22.508;2023-04-02T07:41:14;97918.00;;;9.69;90.36
37634;BME280;32048;49.902;22.508;2023-04-02T07:43:42;97923.53;;;9.64;91.75
37634;BME280;32048;49.902;22.508;2023-04-02T07:46:10;97924.38;;;9.65;92.71
37634;BME280;32048;49.902;22.508;2023-04-02T07:48:39;97930.50;;;9.65;93.76
37634;BME280;32048;49.902;22.508;2023-04-02T07:51:18;97932.94;;;9.68;93.80
37634;BME280;32048;49.902;22.508;2023-04-02T07:53:46;97934.94;;;9.65;94.03
37634;BME280;32048;49.902;22.508;2023-04-02T07:56:18;97930.13;;;9.71;95.18
37634;BME280;32048;49.902;22.508;2023-04-02T07:58:45;97936.41;;;9.83;96.02
37634;BME280;32048;49.902;22.508;2023-04-02T08:01:21;97938.84;;;9.86;93.44
37634;BME280;32048;49.902;22.508;2023-04-02T08:03:53;97932.38;;;9.92;93.57
37634;BME280;32048;49.902;22.508;2023-04-02T08:06:22;97945.34;;;9.95;93.19
37634;BME280;32048;49.902;22.508;2023-04-02T08:08:49;97939.91;;;9.98;92.80
37634;BME280;32048;49.902;22.508;2023-04-02T08:11:17;97949.28;;;10.02;92.15
37634;BME280;32048;49.902;22.508;2023-04-02T08:13:44;97961.63;;;10.02;91.74
37634;BME280;32048;49.902;22.508;2023-04-02T08:16:11;97959.28;;;9.97;92.18
37634;BME280;32048;49.902;22.508;2023-04-02T08:18:39;97965.06;;;9.89;91.91
37634;BME280;32048;49.902;22.508;2023-04-02T08:21:08;97957.97;;;9.90;93.13
37634;BME280;32048;49.902;22.508;2023-04-02T08:23:36;97964.84;;;9.92;92.73
37634;BME280;32048;49.902;22.508;2023-04-02T08:26:04;97966.28;;;9.98;92.85
37634;BME280;32048;49.902;22.508;2023-04-02T08:28:32;97977.47;;;10.02;93.35
37634;BME280;32048;49.902;22.508;2023-04-02T08:30:59;97970.03;;;10.08;93.10
37634;BME280;32048;49.902;22.508;2023-04-02T08:33:26;97977.94;;;10.08;92.39
37634;BME280;32048;49.902;22.508;2023-04-02T08:35:53;97978.97;;;10.06;93.10
37634;BME280;32048;49.902;22.508;2023-04-02T08:38:21;97969.66;;;10.14;94.53
37634;BME280;32048;49.902;22.508;2023-04-02T08:40:50;97979.19;;;10.31;95.81
37634;BME280;32048;49.902;22.508;2023-04-02T08:56:38;97996.88;;;11.51;83.14
37634;BME280;32048;49.902;22.508;2023-04-02T08:59:35;97993.97;;;11.15;83.31
37634;BME280;32048;49.902;22.508;2023-04-02T09:05:04;97995.59;;;10.64;86.55
37634;BME280;32048;49.902;22.508;2023-04-02T09:07:32;98013.44;;;10.46;88.14
37634;BME280;32048;49.902;22.508;2023-04-02T09:10:00;98009.31;;;10.27;89.36
37634;BME280;32048;49.902;22.508;2023-04-02T09:12:30;98012.81;;;10.13;90.28
37634;BME280;32048;49.902;22.508;2023-04-02T09:17:40;98015.16;;;9.89;92.51
37634;BME280;32048;49.902;22.508;2023-04-02T09:20:25;98012.34;;;9.78;94.75
37634;BME280;32048;49.902;22.508;2023-04-02T09:22:54;98023.34;;;9.85;95.02
37634;BME280;32048;49.902;22.508;2023-04-02T09:25:27;98018.44;;;9.93;95.24
37634;BME280;32048;49.902;22.508;2023-04-02T09:28:01;98018.53;;;10.06;95.83
37634;BME280;32048;49.902;22.508;2023-04-02T09:33:02;98029.88;;;10.36;95.47
37634;BME280;32048;49.902;22.508;2023-04-02T09:35:56;98024.41;;;10.67;92.25
37634;BME280;32048;49.902;22.508;2023-04-02T09:38:26;98013.81;;;11.08;91.43
37634;BME280;32048;49.902;22.508;2023-04-02T09:41:02;98020.38;;;11.55;85.59
37634;BME280;32048;49.902;22.508;2023-04-02T09:43:32;98021.03;;;12.23;85.75
37634;BME280;32048;49.902;22.508;2023-04-02T09:48:35;98028.81;;;13.35;72.31
37634;BME280;32048;49.902;22.508;2023-04-02T09:51:22;98028.94;;;13.45;71.24
37634;BME280;32048;49.902;22.508;2023-04-02T09:58:45;98031.22;;;12.90;72.27
37634;BME280;32048;49.902;22.508;2023-04-02T10:01:36;98028.16;;;12.59;72.72
37634;BME280;32048;49.902;22.508;2023-04-02T10:04:16;98035.59;;;12.41;73.85
37634;BME280;32048;49.902;22.508;2023-04-02T10:06:53;98034.69;;;12.30;72.48
37634;BME280;32048;49.902;22.508;2023-04-02T10:09:28;98045.28;;;12.17;74.10
37634;BME280;32048;49.902;22.508;2023-04-02T10:11:57;98031.28;;;12.15;77.20
37634;BME280;32048;49.902;22.508;2023-04-02T10:14:38;98034.59;;;12.18;76.59
37634;BME280;32048;49.902;22.508;2023-04-02T10:19:51;98038.28;;;12.03;76.99
37634;BME280;32048;49.902;22.508;2023-04-02T10:22:21;98047.28;;;11.88;79.66
37634;BME280;32048;49.902;22.508;2023-04-02T10:24:49;98055.41;;;11.72;80.82
37634;BME280;32048;49.902;22.508;2023-04-02T10:32:36;98056.97;;;11.74;80.57
37634;BME280;32048;49.902;22.508;2023-04-02T10:40:43;98068.97;;;11.40;79.37
37634;BME280;32048;49.902;22.508;2023-04-02T10:46:05;98073.75;;;11.35;78.55
37634;BME280;32048;49.902;22.508;2023-04-02T10:51:43;98086.56;;;11.54;78.26
37634;BME280;32048;49.902;22.508;2023-04-02T11:05:47;98095.34;;;12.33;74.84
37634;BME280;32048;49.902;22.508;2023-04-02T11:08:17;98100.88;;;12.42;72.54
37634;BME280;32048;49.902;22.508;2023-04-02T11:13:28;98106.25;;;12.41;70.17
37634;BME280;32048;49.902;22.508;2023-04-02T11:15:57;98099.47;;;12.37;71.26
37634;BME280;32048;49.902;22.508;2023-04-02T11:18:27;98098.72;;;12.35;72.02
37634;BME280;32048;49.902;22.508;2023-04-02T11:20:58;98108.72;;;12.31;71.93
37634;BME280;32048;49.902;22.508;2023-04-02T11:23:35;98116.09;;;12.26;71.59
37634;BME280;32048;49.902;22.508;2023-04-02T11:26:31;98110.94;;;12.24;72.59
37634;BME280;32048;49.902;22.508;2023-04-02T11:31:49;98126.06;;;12.22;72.44
37634;BME280;32048;49.902;22.508;2023-04-02T11:37:39;98128.16;;;12.17;71.64
37634;BME280;32048;49.902;22.508;2023-04-02T11:42:44;98133.88;;;12.24;69.12
37634;BME280;32048;49.902;22.508;2023-04-02T11:50:31;98145.44;;;12.23;69.46
37634;BME280;32048;49.902;22.508;2023-04-02T12:01:01;98141.31;;;12.19;68.79
37634;BME280;32048;49.902;22.508;2023-04-02T12:07:10;98137.81;;;12.18;70.16
37634;BME280;32048;49.902;22.508;2023-04-02T12:09:50;98155.50;;;12.18;68.77
37634;BME280;32048;49.902;22.508;2023-04-02T12:12:32;98154.75;;;12.16;69.36
37634;BME280;32048;49.902;22.508;2023-04-02T12:15:00;98154.63;;;12.17;70.30
37634;BME280;32048;49.902;22.508;2023-04-02T12:17:33;98151.69;;;12.22;70.34
37634;BME280;32048;49.902;22.508;2023-04-02T12:22:46;98153.16;;;12.39;70.70
37634;BME280;32048;49.902;22.508;2023-04-02T12:27:48;98149.78;;;12.50;70.92
37634;BME280;32048;49.902;22.508;2023-04-02T12:30:29;98153.91;;;12.54;71.02
37634;BME280;32048;49.902;22.508;2023-04-02T12:32:56;98160.06;;;12.54;69.90
37634;BME280;32048;49.902;22.508;2023-04-02T12:35:33;98157.91;;;12.46;69.98
37634;BME280;32048;49.902;22.508;2023-04-02T12:38:01;98161.00;;;12.40;71.28
37634;BME280;32048;49.902;22.508;2023-04-02T12:40:28;98161.22;;;12.37;71.08
37634;BME280;32048;49.902;22.508;2023-04-02T12:42:55;98169.78;;;12.28;70.76
37634;BME280;32048;49.902;22.508;2023-04-02T12:45:25;98164.38;;;12.17;72.35
37634;BME280;32048;49.902;22.508;2023-04-02T12:47:56;98165.72;;;11.97;73.76
37634;BME280;32048;49.902;22.508;2023-04-02T12:50:24;98171.38;;;11.78;75.05
37634;BME280;32048;49.902;22.508;2023-04-02T12:52:52;98171.84;;;11.57;76.36
37634;BME280;32048;49.902;22.508;2023-04-02T12:55:23;98163.69;;;11.33;77.34
37634;BME280;32048;49.902;22.508;2023-04-02T12:57:58;98170.72;;;11.20;78.17
37634;BME280;32048;49.902;22.508;2023-04-02T13:00:30;98167.63;;;11.13;78.71
37634;BME280;32048;49.902;22.508;2023-04-02T13:03:16;98173.00;;;11.12;80.28
37634;BME280;32048;49.902;22.508;2023-04-02T13:05:45;98165.44;;;11.20;77.85
37634;BME280;32048;49.902;22.508;2023-04-02T13:08:26;98166.72;;;11.27;77.27
37634;BME280;32048;49.902;22.508;2023-04-02T13:10:59;98173.31;;;11.34;77.24
37634;BME280;32048;49.902;22.508;2023-04-02T13:13:31;98170.19;;;11.42;75.15
37634;BME280;32048;49.902;22.508;2023-04-02T13:16:02;98170.50;;;11.37;75.42
37634;BME280;32048;49.902;22.508;2023-04-02T13:18:30;98176.56;;;11.25;76.07
37634;BME280;32048;49.902;22.508;2023-04-02T13:20:58;98177.34;;;11.13;77.69
37634;BME280;32048;49.902;22.508;2023-04-02T13:26:09;98184.34;;;10.99;77.38
37634;BME280;32048;49.902;22.508;2023-04-02T13:28:37;98184.25;;;10.87;78.00
37634;BME280;32048;49.902;22.508;2023-04-02T13:31:04;98188.78;;;10.85;79.28
37634;BME280;32048;49.902;22.508;2023-04-02T13:33:31;98188.50;;;10.89;80.10
37634;BME280;32048;49.902;22.508;2023-04-02T13:35:59;98181.91;;;10.96;79.23
37634;BME280;32048;49.902;22.508;2023-04-02T13:38:26;98185.09;;;11.01;78.84
37634;BME280;32048;49.902;22.508;2023-04-02T13:40:53;98182.94;;;11.08;76.60
37634;BME280;32048;49.902;22.508;2023-04-02T13:43:20;98189.81;;;11.11;75.67
37634;BME280;32048;49.902;22.508;2023-04-02T13:45:52;98197.44;;;11.15;76.47
37634;BME280;32048;49.902;22.508;2023-04-02T13:48:20;98192.81;;;11.19;75.41
37634;BME280;32048;49.902;22.508;2023-04-02T13:50:51;98198.94;;;11.19;74.10
37634;BME280;32048;49.902;22.508;2023-04-02T13:53:26;98203.94;;;11.10;73.73
37634;BME280;32048;49.902;22.508;2023-04-02T13:55:55;98199.53;;;10.96;73.76
37634;BME280;32048;49.902;22.508;2023-04-02T13:58:25;98209.91;;;10.85;74.21
37634;BME280;32048;49.902;22.508;2023-04-02T14:00:53;98208.97;;;10.71;74.59
37634;BME280;32048;49.902;22.508;2023-04-02T14:03:21;98206.06;;;10.61;74.64
37634;BME280;32048;49.902;22.508;2023-04-02T14:11:45;98210.75;;;10.42;77.13
37634;BME280;32048;49.902;22.508;2023-04-02T14:40:28;98233.91;;;9.61;83.16
37634;BME280;32048;49.902;22.508;2023-04-02T14:43:10;98240.81;;;9.47;84.14
37634;BME280;32048;49.902;22.508;2023-04-02T14:51:04;98248.84;;;9.12;86.92
37634;BME280;32048;49.902;22.508;2023-04-02T14:53:51;98253.84;;;9.01;87.48
37634;BME280;32048;49.902;22.508;2023-04-02T14:56:23;98259.78;;;8.89;88.50
37634;BME280;32048;49.902;22.508;2023-04-02T14:59:33;98251.00;;;8.72;89.26
37634;BME280;32048;49.902;22.508;2023-04-02T15:02:15;98264.78;;;8.60;90.65
37634;BME280;32048;49.902;22.508;2023-04-02T15:04:57;98260.78;;;8.53;90.96
37634;BME280;32048;49.902;22.508;2023-04-02T15:07:37;98273.34;;;8.48;91.29
37634;BME280;32048;49.902;22.508;2023-04-02T15:12:37;98265.41;;;8.30;92.29
37634;BME280;32048;49.902;22.508;2023-04-02T15:15:07;98270.13;;;8.24;92.29
37634;BME280;32048;49.902;22.508;2023-04-02T15:17:40;98280.03;;;8.19;92.66
37634;BME280;32048;49.902;22.508;2023-04-02T15:20:13;98282.03;;;8.13;93.47
37634;BME280;32048;49.902;22.508;2023-04-02T15:23:11;98282.47;;;8.04;94.85
37634;BME280;32048;49.902;22.508;2023-04-02T15:25:46;98284.34;;;8.02;95.25
37634;BME280;32048;49.902;22.508;2023-04-02T15:28:36;98281.09;;;7.97;94.99
37634;BME280;32048;49.902;22.508;2023-04-02T15:31:12;98285.63;;;7.94;95.16
37634;BME280;32048;49.902;22.508;2023-04-02T15:33:47;98293.63;;;7.92;95.85
37634;BME280;32048;49.902;22.508;2023-04-02T15:44:32;98314.03;;;7.87;97.30
37634;BME280;32048;49.902;22.508;2023-04-02T15:53:00;98315.59;;;7.72;97.22
37634;BME280;32048;49.902;22.508;2023-04-02T15:58:17;98323.91;;;7.63;96.99
37634;BME280;32048;49.902;22.508;2023-04-02T16:03:30;98327.03;;;7.52;97.82
37634;BME280;32048;49.902;22.508;2023-04-02T16:06:25;98335.19;;;7.46;97.66
37634;BME280;32048;49.902;22.508;2023-04-02T16:11:39;98346.91;;;7.39;97.03
37634;BME280;32048;49.902;22.508;2023-04-02T16:14:28;98347.13;;;7.34;97.26
37634;BME280;32048;49.902;22.508;2023-04-02T16:17:03;98349.81;;;7.33;97.42
37634;BME280;32048;49.902;22.508;2023-04-02T16:22:38;98354.56;;;7.24;98.71
37634;BME280;32048;49.902;22.508;2023-04-02T16:25:24;98360.88;;;7.20;99.32
37634;BME280;32048;49.902;22.508;2023-04-02T16:31:01;98365.03;;;7.05;100.00
37634;BME280;32048;49.902;22.508;2023-04-02T16:36:24;98384.16;;;6.89;100.00
37634;BME280;32048;49.902;22.508;2023-04-02T16:39:00;98390.69;;;6.78;100.00
37634;BME280;32048;49.902;22.508;2023-04-02T16:41:38;98392.00;;;6.68;100.00
37634;BME280;32048;49.902;22.508;2023-04-02T16:49:50;98394.78;;;6.43;100.00
37634;BME280;32048;49.902;22.508;2023-04-02T17:01:07;98424.13;;;6.09;100.00
37634;BME280;32048;49.902;22.508;2023-04-02T17:06:42;98422.78;;;5.98;100.00
37634;BME280;32048;49.902;22.508;2023-04-02T17:09:17;98423.69;;;5.97;100.00
37634;BME280;32048;49.902;22.508;2023-04-02T17:14:50;98441.25;;;5.94;100.00
37634;BME280;32048;49.902;22.508;2023-04-02T17:17:19;98447.47;;;5.91;100.00
37634;BME280;32048;49.902;22.508;2023-04-02T17:19:49;98452.31;;;5.78;100.00
37634;BME280;32048;49.902;22.508;2023-04-02T17:22:19;98456.03;;;5.73;100.00
37634;BME280;32048;49.902;22.508;2023-04-02T17:24:52;98456.09;;;5.71;100.00
37634;BME280;32048;49.902;22.508;2023-04-02T17:27:36;98462.31;;;5.69;100.00
37634;BME280;32048;49.902;22.508;2023-04-02T17:30:15;98463.41;;;5.63;100.00
37634;BME280;32048;49.902;22.508;2023-04-02T17:32:43;98473.06;;;5.61;100.00
37634;BME280;32048;49.902;22.508;2023-04-02T17:35:35;98462.81;;;5.55;100.00